ACA856 TAPA-TNCM
Flight info
| Callsign | ACA856 |
|---|---|
| Flight time | 0h 26m |
| Altitude | 16000 |
| Route | ANU B520 ELOPO DCT UMANA DCT AVAKI |
| Aircraft | MD82/M-SDFGIJ1RWY/S |
Departure
| Time | 2026-05-03 22:04 |
|---|---|
| Airport | V. C. Bird International Airport (TAPA) |
Arrival
| Time | 2026-05-03 22:30 |
|---|---|
| Airport | Princess Juliana International Airport (TNCM) |
| Time | Latitude | Longitude | Altitude | Speed | Heading |
|---|---|---|---|---|---|
| 2026-05-03 21:41 | 17.14127 | -61.78989 | 44 ft | 0 kts | 324° |
| 2026-05-03 21:56 | 17.14116 | -61.78981 | 44 ft | 2 kts | 324° |
| 2026-05-03 21:56 | 17.14103 | -61.78971 | 39 ft | 2 kts | 324° |
| 2026-05-03 21:56 | 17.14090 | -61.78961 | 41 ft | 2 kts | 324° |
| 2026-05-03 21:56 | 17.14079 | -61.78949 | 38 ft | 2 kts | 283° |
| 2026-05-03 21:57 | 17.14083 | -61.78938 | 37 ft | 0 kts | 226° |
| 2026-05-03 21:59 | 17.14077 | -61.78945 | 37 ft | 7 kts | 226° |
| 2026-05-03 21:59 | 17.14016 | -61.79015 | 45 ft | 20 kts | 230° |
| 2026-05-03 21:59 | 17.13922 | -61.79136 | 44 ft | 22 kts | 232° |
| 2026-05-03 22:00 | 17.13829 | -61.79259 | 48 ft | 21 kts | 231° |
| 2026-05-03 22:00 | 17.13737 | -61.79380 | 52 ft | 21 kts | 233° |
| 2026-05-03 22:00 | 17.13662 | -61.79509 | 52 ft | 21 kts | 239° |
| 2026-05-03 22:00 | 17.13586 | -61.79636 | 55 ft | 21 kts | 237° |
| 2026-05-03 22:01 | 17.13510 | -61.79761 | 58 ft | 21 kts | 237° |
| 2026-05-03 22:01 | 17.13436 | -61.79843 | 56 ft | 12 kts | 191° |
| 2026-05-03 22:01 | 17.13352 | -61.79865 | 55 ft | 11 kts | 196° |
| 2026-05-03 22:01 | 17.13325 | -61.79862 | 55 ft | 0 kts | 132° |
| 2026-05-03 22:02 | 17.13326 | -61.79854 | 55 ft | 3 kts | 84° |
| 2026-05-03 22:02 | 17.13330 | -61.79846 | 57 ft | 0 kts | 59° |
| 2026-05-03 22:03 | 17.13331 | -61.79846 | 58 ft | 0 kts | 59° |
| 2026-05-03 22:03 | 17.13350 | -61.79813 | 57 ft | 30 kts | 59° |
| 2026-05-03 22:03 | 17.13609 | -61.79376 | 53 ft | 109 kts | 59° |
| 2026-05-03 22:04 | 17.14155 | -61.78531 | 140 ft | 163 kts | 57° |
| 2026-05-03 22:04 | 17.14828 | -61.77563 | 1117 ft | 152 kts | 54° |
| 2026-05-03 22:04 | 17.15456 | -61.76780 | 2223 ft | 147 kts | 57° |
| 2026-05-03 22:04 | 17.15974 | -61.75714 | 2652 ft | 180 kts | 72° |
| 2026-05-03 22:05 | 17.16267 | -61.74468 | 3546 ft | 182 kts | 90° |
| 2026-05-03 22:05 | 17.15928 | -61.73122 | 4112 ft | 204 kts | 123° |
| 2026-05-03 22:05 | 17.14825 | -61.72206 | 5028 ft | 207 kts | 159° |
| 2026-05-03 22:05 | 17.13376 | -61.72192 | 5638 ft | 223 kts | 198° |
| 2026-05-03 22:06 | 17.12132 | -61.73174 | 6434 ft | 234 kts | 234° |
| 2026-05-03 22:06 | 17.11567 | -61.74807 | 7013 ft | 250 kts | 265° |
| 2026-05-03 22:06 | 17.11705 | -61.76666 | 7474 ft | 265 kts | 284° |
| 2026-05-03 22:06 | 17.12333 | -61.78542 | 7847 ft | 281 kts | 296° |
| 2026-05-03 22:07 | 17.13290 | -61.80386 | 8256 ft | 295 kts | 302° |
| 2026-05-03 22:07 | 17.14444 | -61.82213 | 8773 ft | 308 kts | 306° |
| 2026-05-03 22:07 | 17.15719 | -61.84040 | 9624 ft | 312 kts | 307° |
| 2026-05-03 22:07 | 17.17027 | -61.85855 | 10409 ft | 319 kts | 308° |
| 2026-05-03 22:08 | 17.18397 | -61.87794 | 10607 ft | 344 kts | 306° |
| 2026-05-03 22:08 | 17.19852 | -61.89881 | 10868 ft | 364 kts | 307° |
| 2026-05-03 22:08 | 17.21372 | -61.92048 | 11487 ft | 372 kts | 307° |
| 2026-05-03 22:08 | 17.22898 | -61.94242 | 12317 ft | 373 kts | 306° |
| 2026-05-03 22:09 | 17.24421 | -61.96449 | 13147 ft | 375 kts | 306° |
| 2026-05-03 22:09 | 17.25948 | -61.98671 | 13904 ft | 379 kts | 306° |
| 2026-05-03 22:09 | 17.27497 | -62.00923 | 14552 ft | 383 kts | 306° |
| 2026-05-03 22:10 | 17.30644 | -62.05494 | 15630 ft | 392 kts | 306° |
| 2026-05-03 22:10 | 17.32219 | -62.07781 | 15822 ft | 392 kts | 306° |
| 2026-05-03 22:10 | 17.33811 | -62.10089 | 15917 ft | 389 kts | 306° |
| 2026-05-03 22:10 | 17.35393 | -62.12385 | 15961 ft | 388 kts | 306° |
| 2026-05-03 22:11 | 17.36969 | -62.14669 | 15984 ft | 387 kts | 306° |
| 2026-05-03 22:11 | 17.38542 | -62.16951 | 15996 ft | 386 kts | 306° |
| 2026-05-03 22:11 | 17.40109 | -62.19229 | 15999 ft | 386 kts | 306° |
| 2026-05-03 22:11 | 17.41682 | -62.21520 | 16002 ft | 386 kts | 306° |
| 2026-05-03 22:12 | 17.43252 | -62.23804 | 16003 ft | 386 kts | 306° |
| 2026-05-03 22:12 | 17.44818 | -62.26082 | 16002 ft | 386 kts | 306° |
| 2026-05-03 22:12 | 17.46386 | -62.28361 | 16003 ft | 385 kts | 306° |
| 2026-05-03 22:12 | 17.47954 | -62.30641 | 16009 ft | 386 kts | 306° |
| 2026-05-03 22:13 | 17.49524 | -62.32924 | 16008 ft | 386 kts | 306° |
| 2026-05-03 22:13 | 17.51093 | -62.35204 | 16007 ft | 385 kts | 306° |
| 2026-05-03 22:13 | 17.52661 | -62.37484 | 16008 ft | 386 kts | 306° |
| 2026-05-03 22:13 | 17.54226 | -62.39761 | 16007 ft | 385 kts | 306° |
| 2026-05-03 22:14 | 17.55791 | -62.42037 | 16007 ft | 384 kts | 306° |
| 2026-05-03 22:14 | 17.57354 | -62.44311 | 16008 ft | 386 kts | 306° |
| 2026-05-03 22:14 | 17.58920 | -62.46588 | 16008 ft | 385 kts | 306° |
| 2026-05-03 22:14 | 17.60484 | -62.48865 | 16008 ft | 385 kts | 306° |
| 2026-05-03 22:15 | 17.62048 | -62.51142 | 16008 ft | 385 kts | 306° |
| 2026-05-03 22:15 | 17.63614 | -62.53420 | 16006 ft | 385 kts | 306° |
| 2026-05-03 22:15 | 17.65102 | -62.55744 | 16006 ft | 384 kts | 297° |
| 2026-05-03 22:15 | 17.66169 | -62.58271 | 16014 ft | 384 kts | 291° |
| 2026-05-03 22:16 | 17.67088 | -62.60896 | 16013 ft | 384 kts | 289° |
| 2026-05-03 22:16 | 17.67989 | -62.63528 | 16015 ft | 383 kts | 290° |
| 2026-05-03 22:16 | 17.68910 | -62.66159 | 16035 ft | 384 kts | 290° |
| 2026-05-03 22:16 | 17.69848 | -62.68780 | 16040 ft | 381 kts | 290° |
| 2026-05-03 22:17 | 17.70786 | -62.71348 | 16043 ft | 376 kts | 291° |
| 2026-05-03 22:17 | 17.71734 | -62.73917 | 15641 ft | 381 kts | 291° |
| 2026-05-03 22:17 | 17.72683 | -62.76481 | 15258 ft | 372 kts | 291° |
| 2026-05-03 22:17 | 17.73611 | -62.78993 | 14813 ft | 366 kts | 291° |
| 2026-05-03 22:18 | 17.74528 | -62.81479 | 14274 ft | 364 kts | 291° |
| 2026-05-03 22:18 | 17.75438 | -62.83956 | 13677 ft | 364 kts | 291° |
| 2026-05-03 22:18 | 17.76345 | -62.86429 | 13077 ft | 362 kts | 291° |
| 2026-05-03 22:18 | 17.77245 | -62.88884 | 12522 ft | 359 kts | 291° |
| 2026-05-03 22:19 | 17.78137 | -62.91316 | 11935 ft | 352 kts | 291° |
| 2026-05-03 22:19 | 17.79001 | -62.93672 | 10842 ft | 344 kts | 291° |
| 2026-05-03 22:19 | 17.79854 | -62.95998 | 10017 ft | 333 kts | 291° |
| 2026-05-03 22:19 | 17.80637 | -62.98143 | 9982 ft | 295 kts | 290° |
| 2026-05-03 22:20 | 17.81340 | -63.00097 | 9873 ft | 278 kts | 290° |
| 2026-05-03 22:20 | 17.82031 | -63.02012 | 9885 ft | 278 kts | 290° |
| 2026-05-03 22:20 | 17.82699 | -63.03860 | 9303 ft | 270 kts | 291° |
| 2026-05-03 22:20 | 17.83351 | -63.05662 | 8919 ft | 255 kts | 291° |
| 2026-05-03 22:21 | 17.83964 | -63.07350 | 8656 ft | 241 kts | 291° |
| 2026-05-03 22:21 | 17.84554 | -63.08960 | 8303 ft | 233 kts | 291° |
| 2026-05-03 22:21 | 17.85131 | -63.10533 | 7889 ft | 230 kts | 291° |
| 2026-05-03 22:21 | 17.85704 | -63.12102 | 7452 ft | 230 kts | 291° |
| 2026-05-03 22:22 | 17.86275 | -63.13666 | 7024 ft | 228 kts | 291° |
| 2026-05-03 22:22 | 17.86835 | -63.15200 | 6635 ft | 224 kts | 292° |
| 2026-05-03 22:22 | 17.87400 | -63.16741 | 6113 ft | 227 kts | 292° |
| 2026-05-03 22:22 | 17.87967 | -63.18280 | 5647 ft | 225 kts | 291° |
| 2026-05-03 22:23 | 17.88528 | -63.19809 | 5208 ft | 223 kts | 291° |
| 2026-05-03 22:23 | 17.89083 | -63.21323 | 4788 ft | 221 kts | 291° |
| 2026-05-03 22:23 | 17.89635 | -63.22832 | 4345 ft | 221 kts | 291° |
| 2026-05-03 22:23 | 17.90182 | -63.24329 | 3935 ft | 219 kts | 291° |
| 2026-05-03 22:24 | 17.90724 | -63.25814 | 3545 ft | 216 kts | 291° |
| 2026-05-03 22:24 | 17.91360 | -63.27231 | 3156 ft | 214 kts | 310° |
| 2026-05-03 22:24 | 17.92544 | -63.28086 | 2761 ft | 206 kts | 347° |
| 2026-05-03 22:24 | 17.93946 | -63.28403 | 2310 ft | 206 kts | 354° |
| 2026-05-03 22:25 | 17.95339 | -63.28647 | 1986 ft | 196 kts | 355° |
| 2026-05-03 22:25 | 17.96638 | -63.28851 | 1799 ft | 182 kts | 356° |
| 2026-05-03 22:25 | 17.97856 | -63.29021 | 1701 ft | 176 kts | 357° |
| 2026-05-03 22:25 | 17.99068 | -63.29174 | 1639 ft | 172 kts | 358° |
| 2026-05-03 22:26 | 18.00303 | -63.29256 | 1698 ft | 178 kts | 14° |
| 2026-05-03 22:26 | 18.01281 | -63.28625 | 1716 ft | 161 kts | 62° |
| 2026-05-03 22:26 | 18.01595 | -63.27499 | 1798 ft | 160 kts | 80° |
| 2026-05-03 22:26 | 18.01812 | -63.26325 | 1763 ft | 164 kts | 82° |
| 2026-05-03 22:27 | 18.02021 | -63.25139 | 1726 ft | 166 kts | 82° |
| 2026-05-03 22:27 | 18.02205 | -63.23954 | 1706 ft | 164 kts | 82° |
| 2026-05-03 22:27 | 18.02376 | -63.22773 | 1689 ft | 164 kts | 84° |
| 2026-05-03 22:27 | 18.02554 | -63.21601 | 1692 ft | 161 kts | 84° |
| 2026-05-03 22:28 | 18.02721 | -63.20422 | 1690 ft | 166 kts | 83° |
| 2026-05-03 22:28 | 18.02889 | -63.19226 | 1691 ft | 166 kts | 84° |
| 2026-05-03 22:28 | 18.03061 | -63.18047 | 1720 ft | 165 kts | 82° |
| 2026-05-03 22:28 | 18.03225 | -63.16800 | 1421 ft | 179 kts | 84° |
| 2026-05-03 22:29 | 18.03361 | -63.15515 | 942 ft | 172 kts | 85° |
| 2026-05-03 22:29 | 18.03578 | -63.14310 | 512 ft | 163 kts | 77° |
| 2026-05-03 22:29 | 18.03783 | -63.13185 | 294 ft | 157 kts | 83° |
| 2026-05-03 22:29 | 18.03915 | -63.12077 | 63 ft | 145 kts | 77° |
| 2026-05-03 22:30 | 18.04058 | -63.11137 | 22 ft | 105 kts | 81° |
| 2026-05-03 22:30 | 18.04125 | -63.10707 | 22 ft | 28 kts | 85° |
| 2026-05-03 22:30 | 18.04118 | -63.10559 | 22 ft | 12 kts | 94° |
| 2026-05-03 22:30 | 18.04129 | -63.10488 | 24 ft | 7 kts | 44° |
| 2026-05-03 22:31 | 18.04145 | -63.10482 | 21 ft | 2 kts | 10° |
| 2026-05-03 22:31 | 18.04154 | -63.10488 | 21 ft | 2 kts | 309° |
| 2026-05-03 22:31 | 18.04153 | -63.10537 | 23 ft | 17 kts | 259° |
| 2026-05-03 22:31 | 18.04122 | -63.10708 | 22 ft | 26 kts | 261° |
| 2026-05-03 22:32 | 18.04092 | -63.10899 | 21 ft | 26 kts | 262° |
| 2026-05-03 22:32 | 18.04068 | -63.11069 | 23 ft | 23 kts | 262° |
| 2026-05-03 22:32 | 18.04053 | -63.11172 | 22 ft | 14 kts | 261° |
| 2026-05-03 22:32 | 18.04068 | -63.11267 | 22 ft | 14 kts | 310° |
| 2026-05-03 22:33 | 18.04159 | -63.11299 | 24 ft | 15 kts | 352° |
| 2026-05-03 22:33 | 18.04230 | -63.11306 | 22 ft | 7 kts | 10° |
| 2026-05-03 22:33 | 18.04275 | -63.11282 | 22 ft | 4 kts | 16° |
| 2026-05-03 22:33 | 18.04304 | -63.11288 | 21 ft | 5 kts | 349° |
| 2026-05-03 22:34 | 18.04329 | -63.11292 | 21 ft | 1 kts | 351° |